Athens, IN (46912)

7:31 AM EST on December 05, 2016 (GMT -0500)
4th Street | | Change Station

Elev 781 ft 41.07 °N, 86.20 °W | Updated 4 minutes ago

Overcast
Overcast
31.8 °F
Feels Like 32 °F
N
3.0
Wind Variable Wind from WNW
Gusts 7.0 mph

Today
High -- | Low -- °F
--% Chance of Precip.
Yesterday
High -- | Low -- °F
Precip. -- in
Pressure 30.04 in
Visibility 10.0 miles
Clouds Overcast 1000 ft
Windchill 32 °F
Dew Point 28 °F
Humidity 86%
Rainfall 0.02 in
Snow Depth Not available.
7:54 AM 5:16 PM
Waxing Crescent, 31% visible
METAR KRCR 051215Z AUTO 28005KT 10SM OVC010 01/00 A3004 RMK AO2
Pressure 30.04 in
Visibility 10.0 miles
Clouds Overcast 1000 ft
Windchill 32 °F
Dew Point 28 °F
Humidity 86%
Rainfall 0.02 in
Snow Depth Not available.
7:54 AM 5:16 PM
Waxing Crescent, 31% visible
METAR KRCR 051215Z AUTO 28005KT 10SM OVC010 01/00 A3004 RMK AO2

10-Day Weather Forecast

Almanac

Astronomy

Dec. 05, 2016 Rise Set
Actual Time
Civil Twilight
Nautical Twilight
Astronomical Twilight
Moon
Length of Visible Light
Length of Day
Tomorrow will be .
, % of the Moon is Illuminated

Today's Extremes

State Highs State Lows

Community

WunderPhotos

Upload Photos

1,955,777 photos uploaded!

WunderBlog® & News

Nearby

Air Quality

  Air Quality AQ Index Pollutant
Not available.

Snow Depth

Station Depth Elevation

Earthquake Activity

City Distance Mag. Time & Date
Minimum magnitude displayed is 2.5.

Coastal Water Temperatures

Place Temperature

Stations

Nearby Weather Stations

Station Location Temp. Windchill Dew Point Humidity Wind Precip. Elev Updated Type
                   

Watches & Warnings

There are currently no watches in effect.